Terminal Aerodrome Forecast
Issued by NWS

Home | Current Version | Previous Version | Text Only | Print | Product List | Glossary On
Versions: 1 2 3 4 5 6 7 8 9 10 11 12 13 14 15 16 17
000
FTUS43 KTOP 292300
TAFFOE
TAF
KFOE 292335Z 3000/3024 27009KT P6SM VCTS BKN080CB
     FM300100 27007KT P6SM FEW120
     FM300600 VRB03KT P6SM SCT250
     FM302100 18007KT P6SM SKC=

USA.gov is the U.S. government's official web portal to all federal, state and local government web resources and services.